Time;durP1;ratioP1;P1;durP2;ratioP2;P2;SDS_P1;SDS_P2;PMS_P1;PMS_P2;Temp;Humidity;BMP_temperature;BMP_pressure;BME280_temperature;BME280_humidity;BME280_pressure;Samples;Min_cycle;Max_cycle;Signal;HPM_P1;HPM_P2
2022/01/09 00:03:17;;;;;;;27.20;16.07;;;;;;;;;;10374740;28;20034;-51
2022/01/09 00:08:17;;;;;;;29.40;16.30;;;;;;;;;;10374597;28;20456;-54
2022/01/09 00:13:18;;;;;;;22.17;15.53;;;;;;;;;;10374077;28;20464;-53
2022/01/09 00:18:18;;;;;;;27.52;16.67;;;;;;;;;;10373847;28;20034;-54
2022/01/09 00:23:19;;;;;;;25.67;15.33;;;;;;;;;;10373495;28;20030;-51
2022/01/09 00:28:19;;;;;;;25.02;16.08;;;;;;;;;;10373545;28;20852;-53
2022/01/09 00:33:21;;;;;;;22.37;14.57;;;;;;;;;;10373349;28;20099;-52
2022/01/09 00:38:21;;;;;;;29.67;15.23;;;;;;;;;;10373665;28;20455;-54
2022/01/09 00:43:21;;;;;;;26.42;15.90;;;;;;;;;;10371959;28;20068;-53
2022/01/09 00:48:22;;;;;;;29.67;15.40;;;;;;;;;;10373440;28;20022;-51
2022/01/09 00:53:22;;;;;;;24.80;15.50;;;;;;;;;;10373088;28;20452;-55
2022/01/09 00:58:23;;;;;;;24.77;15.83;;;;;;;;;;10373147;28;20529;-49
2022/01/09 01:03:23;;;;;;;21.05;14.15;;;;;;;;;;10372275;28;20880;-54
2022/01/09 01:08:23;;;;;;;27.60;15.53;;;;;;;;;;10372175;28;20113;-51
2022/01/09 01:13:24;;;;;;;22.63;14.27;;;;;;;;;;10372478;28;20463;-53
2022/01/09 01:18:24;;;;;;;23.33;14.73;;;;;;;;;;10372341;28;20381;-54
2022/01/09 01:23:25;;;;;;;29.97;15.90;;;;;;;;;;10371490;28;20401;-51
2022/01/09 01:28:25;;;;;;;23.37;14.97;;;;;;;;;;10371422;28;20483;-54
2022/01/09 01:33:25;;;;;;;25.60;14.87;;;;;;;;;;10370857;28;20538;-51
2022/01/09 01:38:26;;;;;;;24.05;15.85;;;;;;;;;;10370843;28;20030;-49
2022/01/09 01:43:27;;;;;;;29.30;16.40;;;;;;;;;;10370695;28;20152;-52
2022/01/09 01:48:27;;;;;;;22.38;15.05;;;;;;;;;;10370520;28;20819;-52
2022/01/09 01:53:28;;;;;;;24.83;15.47;;;;;;;;;;10370712;28;20018;-54
2022/01/09 01:58:31;;;;;;;23.90;15.55;;;;;;;;;;10370447;28;20463;-48
2022/01/09 02:03:31;;;;;;;24.70;16.15;;;;;;;;;;10370465;28;20088;-52
2022/01/09 02:08:32;;;;;;;24.17;15.37;;;;;;;;;;10370399;28;20072;-55
2022/01/09 02:13:33;;;;;;;21.33;14.63;;;;;;;;;;10369742;28;20887;-52
2022/01/09 02:18:33;;;;;;;25.27;16.10;;;;;;;;;;10370017;28;20358;-54
2022/01/09 02:23:35;;;;;;;23.50;15.18;;;;;;;;;;10369175;28;20033;-52
2022/01/09 02:28:35;;;;;;;24.58;15.15;;;;;;;;;;10369228;28;20436;-48
2022/01/09 02:33:35;;;;;;;24.70;15.47;;;;;;;;;;10369090;28;20087;-52
2022/01/09 02:38:36;;;;;;;23.43;14.93;;;;;;;;;;10368984;28;20563;-56
2022/01/09 02:43:37;;;;;;;24.70;14.90;;;;;;;;;;10368696;28;20483;-53
2022/01/09 02:48:39;;;;;;;22.23;14.15;;;;;;;;;;10369146;28;20030;-52
2022/01/09 02:53:40;;;;;;;29.88;16.45;;;;;;;;;;10368250;28;20032;-50
2022/01/09 02:58:41;;;;;;;23.15;14.88;;;;;;;;;;10368435;28;20034;-52
2022/01/09 03:03:42;;;;;;;23.98;14.63;;;;;;;;;;10367045;28;20112;-50
2022/01/09 03:08:42;;;;;;;28.70;15.17;;;;;;;;;;10367730;28;20037;-49
2022/01/09 03:13:42;;;;;;;22.20;13.90;;;;;;;;;;10367903;28;20574;-49
2022/01/09 03:18:43;;;;;;;25.80;15.43;;;;;;;;;;10368222;28;20025;-64
2022/01/09 03:23:43;;;;;;;23.87;14.37;;;;;;;;;;10367718;28;20510;-63
2022/01/09 03:28:43;;;;;;;22.60;15.43;;;;;;;;;;10367902;28;20434;-54
2022/01/09 03:33:44;;;;;;;21.43;14.47;;;;;;;;;;10368143;28;20050;-53
2022/01/09 03:38:44;;;;;;;25.33;14.77;;;;;;;;;;10368139;28;21081;-51
2022/01/09 03:43:45;;;;;;;18.47;13.47;;;;;;;;;;10367475;28;20041;-53
2022/01/09 03:48:45;;;;;;;21.40;13.17;;;;;;;;;;10368693;28;20474;-50
2022/01/09 03:53:45;;;;;;;19.97;13.23;;;;;;;;;;10367467;28;20463;-54
2022/01/09 03:58:46;;;;;;;24.27;14.03;;;;;;;;;;10367959;28;20470;-53
2022/01/09 04:03:46;;;;;;;21.27;13.97;;;;;;;;;;10367132;28;20455;-53
2022/01/09 04:08:47;;;;;;;21.77;14.10;;;;;;;;;;10367212;28;20112;-52
2022/01/09 04:13:48;;;;;;;20.88;13.32;;;;;;;;;;10366720;28;20866;-53
2022/01/09 04:18:49;;;;;;;20.13;13.55;;;;;;;;;;10368307;28;20076;-51
2022/01/09 04:23:49;;;;;;;21.07;12.83;;;;;;;;;;10373970;28;20030;-49
2022/01/09 04:28:49;;;;;;;25.00;13.13;;;;;;;;;;10374900;28;20490;-52
2022/01/09 04:33:50;;;;;;;19.13;12.53;;;;;;;;;;10373748;28;20958;-51
2022/01/09 04:38:51;;;;;;;22.17;12.97;;;;;;;;;;10374069;28;20483;-52
2022/01/09 04:43:52;;;;;;;19.67;12.95;;;;;;;;;;10374236;28;20521;-53
2022/01/09 04:48:54;;;;;;;18.60;12.40;;;;;;;;;;10373723;28;20605;-54
2022/01/09 04:53:55;;;;;;;18.95;11.50;;;;;;;;;;10372172;28;20479;-50
2022/01/09 04:58:55;;;;;;;19.00;12.30;;;;;;;;;;10373357;28;20041;-52
2022/01/09 05:03:55;;;;;;;20.27;13.27;;;;;;;;;;10372380;28;20530;-50
2022/01/09 05:08:56;;;;;;;20.87;12.67;;;;;;;;;;10372420;28;20432;-50
2022/01/09 05:13:56;;;;;;;16.90;12.47;;;;;;;;;;10372420;28;20092;-51
2022/01/09 05:19:06;;;;;;;18.63;12.37;;;;;;;;;;10371967;28;20017;-53
2022/01/09 05:24:06;;;;;;;19.73;12.75;;;;;;;;;;10372185;28;20033;-52
2022/01/09 05:29:07;;;;;;;19.07;12.23;;;;;;;;;;10369920;28;20022;-53
2022/01/09 05:34:07;;;;;;;20.00;12.23;;;;;;;;;;10371283;28;20448;-53
2022/01/09 05:39:07;;;;;;;20.67;12.18;;;;;;;;;;10371712;28;20109;-53
2022/01/09 05:44:08;;;;;;;18.40;12.40;;;;;;;;;;10370983;28;20420;-56
2022/01/09 05:49:08;;;;;;;20.20;11.90;;;;;;;;;;10371504;28;20535;-52
2022/01/09 05:54:09;;;;;;;17.05;12.10;;;;;;;;;;10370537;28;20053;-49
2022/01/09 05:59:09;;;;;;;17.63;11.70;;;;;;;;;;10371108;28;20033;-50
2022/01/09 06:04:10;;;;;;;16.45;10.98;;;;;;;;;;10371142;28;20068;-53
2022/01/09 06:09:10;;;;;;;15.43;11.60;;;;;;;;;;10370153;28;20022;-51
2022/01/09 06:14:11;;;;;;;16.60;11.82;;;;;;;;;;10369277;28;20463;-50
2022/01/09 06:19:11;;;;;;;17.67;11.70;;;;;;;;;;10370306;28;20030;-49
2022/01/09 06:24:12;;;;;;;18.60;11.38;;;;;;;;;;10369954;28;20037;-56
2022/01/09 06:29:12;;;;;;;21.13;11.67;;;;;;;;;;10369566;28;20253;-54
2022/01/09 06:34:13;;;;;;;15.48;10.63;;;;;;;;;;10369642;28;20881;-51
2022/01/09 06:39:14;;;;;;;16.67;10.73;;;;;;;;;;10369554;28;20026;-52
2022/01/09 06:44:14;;;;;;;17.35;11.05;;;;;;;;;;10368558;28;20040;-52
2022/01/09 06:49:15;;;;;;;15.65;11.15;;;;;;;;;;10369409;28;20021;-50
2022/01/09 06:54:15;;;;;;;16.50;11.15;;;;;;;;;;10368575;28;20037;-52
2022/01/09 06:59:16;;;;;;;18.00;11.82;;;;;;;;;;10368510;28;20030;-51
2022/01/09 07:04:16;;;;;;;15.32;10.80;;;;;;;;;;10368770;28;20081;-49
2022/01/09 07:09:17;;;;;;;14.98;9.80;;;;;;;;;;10368359;28;20039;-54
2022/01/09 07:14:17;;;;;;;15.40;10.67;;;;;;;;;;10368062;28;20269;-52
2022/01/09 07:19:17;;;;;;;15.43;10.63;;;;;;;;;;10368145;28;20443;-59
2022/01/09 07:24:18;;;;;;;15.30;9.93;;;;;;;;;;10367794;28;20030;-53
2022/01/09 07:29:18;;;;;;;15.90;9.13;;;;;;;;;;10367888;28;20042;-51
2022/01/09 07:34:19;;;;;;;15.75;10.02;;;;;;;;;;10368123;28;20026;-55
2022/01/09 07:39:20;;;;;;;12.48;9.40;;;;;;;;;;10366914;28;20485;-54
2022/01/09 07:44:20;;;;;;;15.43;9.93;;;;;;;;;;10367591;28;20033;-52
2022/01/09 07:49:22;;;;;;;14.70;9.40;;;;;;;;;;10368134;28;20443;-54
2022/01/09 07:54:22;;;;;;;14.45;9.80;;;;;;;;;;10372018;28;20030;-52
2022/01/09 07:59:22;;;;;;;13.18;9.23;;;;;;;;;;10375149;28;20029;-54
2022/01/09 08:04:23;;;;;;;13.48;9.48;;;;;;;;;;10374892;28;20030;-54
2022/01/09 08:09:23;;;;;;;13.93;8.93;;;;;;;;;;10374477;28;20026;-52
2022/01/09 08:14:24;;;;;;;13.85;8.45;;;;;;;;;;10373814;28;20533;-51
2022/01/09 08:19:24;;;;;;;16.73;9.27;;;;;;;;;;10374011;28;20134;-52
2022/01/09 08:24:24;;;;;;;12.83;8.40;;;;;;;;;;10373379;28;20466;-56
2022/01/09 08:29:25;;;;;;;11.68;8.40;;;;;;;;;;10374152;28;21034;-54
2022/01/09 08:34:25;;;;;;;16.83;9.57;;;;;;;;;;10373139;28;20393;-53
2022/01/09 08:39:26;;;;;;;26.33;8.40;;;;;;;;;;10373503;28;20049;-51
2022/01/09 08:44:26;;;;;;;19.37;8.73;;;;;;;;;;10373120;28;20475;-58
2022/01/09 08:49:26;;;;;;;15.35;8.73;;;;;;;;;;10373012;28;20529;-55
2022/01/09 08:54:27;;;;;;;18.50;8.70;;;;;;;;;;10372165;28;20355;-54
2022/01/09 08:59:28;;;;;;;16.42;8.65;;;;;;;;;;10373062;28;20522;-53
2022/01/09 09:04:28;;;;;;;18.15;8.00;;;;;;;;;;10371251;28;20045;-53
2022/01/09 09:09:28;;;;;;;12.43;7.80;;;;;;;;;;10371848;28;20026;-58
2022/01/09 09:14:29;;;;;;;17.73;8.40;;;;;;;;;;10371603;28;20495;-57
2022/01/09 09:19:30;;;;;;;15.55;7.90;;;;;;;;;;10371134;28;20447;-56
2022/01/09 09:24:30;;;;;;;14.20;7.68;;;;;;;;;;10371332;28;20041;-57
2022/01/09 09:29:31;;;;;;;15.10;8.37;;;;;;;;;;10371667;28;20032;-56
2022/01/09 09:34:31;;;;;;;12.40;7.53;;;;;;;;;;10370775;28;20448;-56
2022/01/09 09:39:32;;;;;;;12.80;8.05;;;;;;;;;;10370805;28;20447;-57
2022/01/09 09:44:33;;;;;;;12.05;7.93;;;;;;;;;;10369729;28;20034;-50
2022/01/09 09:49:33;;;;;;;15.53;7.97;;;;;;;;;;10368889;28;20037;-55
2022/01/09 09:54:34;;;;;;;13.73;8.30;;;;;;;;;;10369833;28;20522;-52
2022/01/09 09:59:36;;;;;;;17.23;8.43;;;;;;;;;;10370996;28;20450;-55
2022/01/09 10:04:37;;;;;;;14.10;8.23;;;;;;;;;;10370026;28;20105;-54
2022/01/09 10:09:51;;;;;;;13.38;8.30;;;;;;;;;;10370566;28;20114;-55
2022/01/09 10:15:00;;;;;;;14.20;8.48;;;;;;;;;;10369844;28;20045;-55
2022/01/09 10:20:04;;;;;;;12.45;8.00;;;;;;;;;;10368949;28;20026;-55
2022/01/09 10:25:30;;;;;;;13.30;8.18;;;;;;;;;;10370404;28;20038;-53
2022/01/09 10:30:33;;;;;;;16.63;8.90;;;;;;;;;;10368914;28;20037;-55
2022/01/09 10:35:35;;;;;;;13.00;8.25;;;;;;;;;;10369341;28;20478;-53
2022/01/09 10:40:38;;;;;;;14.35;8.27;;;;;;;;;;10368964;28;20030;-53
2022/01/09 10:45:41;;;;;;;15.23;8.55;;;;;;;;;;10368761;28;20026;-54
2022/01/09 10:50:43;;;;;;;20.83;9.55;;;;;;;;;;10368850;28;20088;-54
2022/01/09 10:55:49;;;;;;;14.43;8.60;;;;;;;;;;10367923;28;20025;-54
2022/01/09 11:01:08;;;;;;;13.43;8.65;;;;;;;;;;10367172;28;20036;-51
2022/01/09 11:06:09;;;;;;;;;;;;;;;;;;10369185;28;20053;-57
2022/01/09 11:11:54;;;;;;;12.65;8.77;;;;;;;;;;10367636;28;20066;-55
2022/01/09 11:16:43;;;;;;;14.68;8.43;;;;;;;;;;10367153;28;20058;-56
2022/01/09 11:21:45;;;;;;;15.75;8.88;;;;;;;;;;10367081;28;20088;-55
2022/01/09 11:26:56;;;;;;;14.73;8.75;;;;;;;;;;10369294;28;20022;-53
2022/01/09 11:32:08;;;;;;;14.23;8.73;;;;;;;;;;10376586;28;20476;-55
2022/01/09 11:37:22;;;;;;;13.25;8.32;;;;;;;;;;10376544;28;20030;-55
2022/01/09 11:42:22;;;;;;;16.35;8.88;;;;;;;;;;10374775;28;20083;-55
2022/01/09 11:47:24;;;;;;;16.08;9.13;;;;;;;;;;10374251;28;20428;-55
2022/01/09 11:52:26;;;;;;;14.60;9.05;;;;;;;;;;10375000;28;20359;-54
2022/01/09 11:57:35;;;;;;;17.23;9.63;;;;;;;;;;10375658;28;20034;-56
2022/01/09 12:02:37;;;;;;;15.20;9.65;;;;;;;;;;10374868;28;20275;-58
2022/01/09 12:07:40;;;;;;;16.40;8.75;;;;;;;;;;10373674;28;20022;-55
2022/01/09 12:12:40;;;;;;;15.45;8.57;;;;;;;;;;10374613;28;20068;-54
2022/01/09 12:17:45;;;;;;;14.03;8.97;;;;;;;;;;10374794;28;20358;-56
2022/01/09 12:22:46;;;;;;;19.95;8.85;;;;;;;;;;10373962;28;20878;-55
2022/01/09 12:27:48;;;;;;;17.25;8.98;;;;;;;;;;10374535;28;20557;-54
2022/01/09 12:32:48;;;;;;;17.33;9.50;;;;;;;;;;10374111;28;20117;-52
2022/01/09 12:37:53;;;;;;;17.47;9.03;;;;;;;;;;10373351;28;20124;-55
2022/01/09 12:42:55;;;;;;;12.00;7.38;;;;;;;;;;10372764;28;21060;-55
2022/01/09 12:47:57;;;;;;;13.05;8.48;;;;;;;;;;10373277;28;20022;-61
2022/01/09 12:53:16;;;;;;;16.17;8.80;;;;;;;;;;10373024;28;20371;-54
2022/01/09 12:58:22;;;;;;;10.80;7.95;;;;;;;;;;10373763;28;20064;-58
2022/01/09 13:03:31;;;;;;;11.65;7.78;;;;;;;;;;10372985;28;20072;-55
2022/01/09 13:08:31;;;;;;;13.83;7.97;;;;;;;;;;10372921;28;20033;-55
2022/01/09 13:13:33;;;;;;;10.97;7.50;;;;;;;;;;10372287;28;20463;-55
2022/01/09 13:18:36;;;;;;;12.00;7.18;;;;;;;;;;10372093;28;20534;-55
2022/01/09 13:23:57;;;;;;;11.90;7.60;;;;;;;;;;10371188;28;20504;-54
2022/01/09 13:28:58;;;;;;;11.10;7.25;;;;;;;;;;10371976;28;20192;-54
2022/01/09 13:34:04;;;;;;;12.15;7.45;;;;;;;;;;10371319;28;20049;-55
2022/01/09 13:39:08;;;;;;;10.65;7.18;;;;;;;;;;10372401;28;20022;-57
2022/01/09 13:44:10;;;;;;;10.80;7.03;;;;;;;;;;10369259;28;20036;-54
2022/01/09 13:49:12;;;;;;;12.73;7.03;;;;;;;;;;10370602;28;20037;-54
2022/01/09 13:54:16;;;;;;;10.43;6.95;;;;;;;;;;10370839;28;20018;-56
2022/01/09 13:59:17;;;;;;;8.73;6.47;;;;;;;;;;10368790;28;20505;-51
2022/01/09 14:04:19;;;;;;;8.87;6.27;;;;;;;;;;10370306;28;20108;-52
2022/01/09 14:09:25;;;;;;;10.07;6.82;;;;;;;;;;10370111;28;20566;-51
2022/01/09 14:14:28;;;;;;;13.00;6.55;;;;;;;;;;10369389;28;20422;-54
2022/01/09 14:19:45;;;;;;;13.10;6.65;;;;;;;;;;10370422;28;20030;-54
2022/01/09 14:24:58;;;;;;;9.50;6.68;;;;;;;;;;10369138;28;20545;-51
2022/01/09 14:30:00;;;;;;;11.05;6.80;;;;;;;;;;10369113;28;20481;-51
2022/01/09 14:35:00;;;;;;;13.40;6.35;;;;;;;;;;10369638;28;20030;-54
2022/01/09 14:40:10;;;;;;;10.43;6.53;;;;;;;;;;10369626;28;20026;-54
2022/01/09 14:45:10;;;;;;;11.18;6.10;;;;;;;;;;10368732;28;20471;-54
2022/01/09 14:50:11;;;;;;;10.75;6.18;;;;;;;;;;10368887;28;20017;-51
2022/01/09 14:55:12;;;;;;;9.90;6.38;;;;;;;;;;10365463;28;20030;-52
2022/01/09 15:00:14;;;;;;;11.00;5.97;;;;;;;;;;10368319;28;20024;-55
2022/01/09 15:05:14;;;;;;;9.32;5.38;;;;;;;;;;10365528;28;20025;-60
2022/01/09 15:10:15;;;;;;;7.68;5.53;;;;;;;;;;10367027;28;20406;-61
2022/01/09 15:15:16;;;;;;;9.80;6.03;;;;;;;;;;10366739;28;20397;-63
2022/01/09 15:20:17;;;;;;;8.77;5.55;;;;;;;;;;10366978;28;20060;-63
2022/01/09 15:25:17;;;;;;;8.95;5.95;;;;;;;;;;10366647;28;20130;-64
2022/01/09 15:30:18;;;;;;;9.25;5.50;;;;;;;;;;10366881;28;20378;-62
2022/01/09 15:35:19;;;;;;;8.50;5.40;;;;;;;;;;10366473;28;20072;-65
2022/01/09 15:40:20;;;;;;;7.50;5.45;;;;;;;;;;10365883;28;20966;-65
2022/01/09 15:45:20;;;;;;;9.82;5.57;;;;;;;;;;10366016;28;20026;-56
2022/01/09 15:50:21;;;;;;;14.48;6.00;;;;;;;;;;10366948;28;20022;-58
2022/01/09 15:55:22;;;;;;;11.13;5.93;;;;;;;;;;10366316;28;20462;-55
2022/01/09 16:00:22;;;;;;;7.22;5.32;;;;;;;;;;10365870;28;20018;-55
2022/01/09 16:05:22;;;;;;;9.03;5.50;;;;;;;;;;10365294;28;20033;-57
2022/01/09 16:10:23;;;;;;;8.68;5.38;;;;;;;;;;10365693;28;20444;-55
2022/01/09 16:15:23;;;;;;;9.77;5.65;;;;;;;;;;10370252;28;20069;-62
2022/01/09 16:20:24;;;;;;;8.70;5.57;;;;;;;;;;10372295;28;20034;-56
2022/01/09 16:25:24;;;;;;;9.30;5.65;;;;;;;;;;10372736;28;20331;-58
2022/01/09 16:30:25;;;;;;;7.32;5.47;;;;;;;;;;10372904;28;20030;-64
2022/01/09 16:35:27;;;;;;;7.15;5.72;;;;;;;;;;10370907;28;20453;-63
2022/01/09 16:40:28;;;;;;;8.60;5.90;;;;;;;;;;10372098;28;20033;-60
2022/01/09 16:45:29;;;;;;;9.38;5.35;;;;;;;;;;10371640;28;20034;-58
2022/01/09 16:50:30;;;;;;;9.07;5.57;;;;;;;;;;10371329;28;20112;-59
2022/01/09 16:55:30;;;;;;;8.93;5.78;;;;;;;;;;10371138;28;20156;-61
2022/01/09 17:00:31;;;;;;;9.57;5.87;;;;;;;;;;10371081;28;20032;-59
2022/01/09 17:05:31;;;;;;;14.27;6.55;;;;;;;;;;10370230;28;21006;-57
2022/01/09 17:10:32;;;;;;;13.35;6.78;;;;;;;;;;10370359;28;20029;-58
2022/01/09 17:15:33;;;;;;;14.63;7.95;;;;;;;;;;10370339;28;20037;-57
2022/01/09 17:20:33;;;;;;;16.33;8.07;;;;;;;;;;10370248;28;20026;-55
2022/01/09 17:25:33;;;;;;;11.57;7.47;;;;;;;;;;10369141;28;20574;-59
2022/01/09 17:30:34;;;;;;;10.77;7.20;;;;;;;;;;10369693;28;20428;-58
2022/01/09 17:35:36;;;;;;;13.32;8.25;;;;;;;;;;10369297;28;20021;-57
2022/01/09 17:40:37;;;;;;;14.00;8.02;;;;;;;;;;10368986;28;20076;-53
2022/01/09 17:45:38;;;;;;;18.73;10.05;;;;;;;;;;10370078;28;20113;-55
2022/01/09 17:50:38;;;;;;;24.15;11.77;;;;;;;;;;10367550;28;20385;-62
2022/01/09 17:55:40;;;;;;;17.45;10.93;;;;;;;;;;10367826;28;20030;-60
2022/01/09 18:00:40;;;;;;;28.75;11.18;;;;;;;;;;10367068;28;20075;-55
2022/01/09 18:05:41;;;;;;;25.20;11.57;;;;;;;;;;10361600;28;20040;-52
2022/01/09 18:10:41;;;;;;;39.20;15.93;;;;;;;;;;10369129;28;20484;-49
2022/01/09 18:15:42;;;;;;;43.60;16.98;;;;;;;;;;10368110;28;20073;-52
2022/01/09 18:20:42;;;;;;;36.20;17.17;;;;;;;;;;10366737;28;20034;-52
2022/01/09 18:25:43;;;;;;;36.87;17.60;;;;;;;;;;10365716;28;20467;-51
2022/01/09 18:30:43;;;;;;;38.93;18.03;;;;;;;;;;10368025;28;20455;-50
2022/01/09 18:35:43;;;;;;;46.33;19.07;;;;;;;;;;10366361;28;20468;-48
2022/01/09 18:40:45;;;;;;;41.72;17.95;;;;;;;;;;10368292;28;20835;-50
2022/01/09 18:45:46;;;;;;;46.58;16.88;;;;;;;;;;10367955;28;20580;-51
2022/01/09 18:50:46;;;;;;;32.97;15.95;;;;;;;;;;10367102;28;20031;-47
2022/01/09 18:55:47;;;;;;;41.40;17.58;;;;;;;;;;10368233;28;20034;-56
2022/01/09 19:00:47;;;;;;;38.90;17.57;;;;;;;;;;10366134;28;20026;-52
2022/01/09 19:05:48;;;;;;;36.38;17.08;;;;;;;;;;10363322;28;21040;-51
2022/01/09 19:10:48;;;;;;;39.63;17.52;;;;;;;;;;10363392;28;20321;-52
2022/01/09 19:15:50;;;;;;;38.90;17.23;;;;;;;;;;10366431;28;20046;-49
2022/01/09 19:20:50;;;;;;;35.03;17.15;;;;;;;;;;10366351;28;20538;-51
2022/01/09 19:25:51;;;;;;;37.57;17.33;;;;;;;;;;10367873;28;20026;-52
2022/01/09 19:30:51;;;;;;;48.45;17.40;;;;;;;;;;10367330;28;20443;-54
2022/01/09 19:35:52;;;;;;;35.20;16.50;;;;;;;;;;10367202;28;20025;-52
2022/01/09 19:40:54;;;;;;;29.83;15.23;;;;;;;;;;10365654;28;20547;-51
2022/01/09 19:45:55;;;;;;;32.97;17.65;;;;;;;;;;10365751;28;20034;-54
2022/01/09 19:50:55;;;;;;;33.55;15.88;;;;;;;;;;10373544;28;20088;-53
2022/01/09 19:55:56;;;;;;;37.17;17.08;;;;;;;;;;10375004;28;20036;-52
2022/01/09 20:00:56;;;;;;;28.73;15.90;;;;;;;;;;10374326;28;20034;-55
2022/01/09 20:05:57;;;;;;;37.78;16.30;;;;;;;;;;10373620;28;20802;-53
2022/01/09 20:10:58;;;;;;;31.92;16.10;;;;;;;;;;10368237;28;20496;-52
2022/01/09 20:15:59;;;;;;;48.90;17.02;;;;;;;;;;10369727;28;20397;-52
2022/01/09 20:21:02;;;;;;;39.05;15.95;;;;;;;;;;10374099;28;20028;-51
2022/01/09 20:26:03;;;;;;;28.17;15.77;;;;;;;;;;10373439;28;20276;-53
2022/01/09 20:31:04;;;;;;;30.58;15.48;;;;;;;;;;10373493;28;20449;-52
2022/01/09 20:36:05;;;;;;;30.83;15.20;;;;;;;;;;10373030;28;20033;-55
2022/01/09 20:41:10;;;;;;;28.65;15.32;;;;;;;;;;10372508;28;20054;-53
2022/01/09 20:46:10;;;;;;;36.03;15.32;;;;;;;;;;10372901;28;20030;-50
2022/01/09 20:51:11;;;;;;;37.70;15.32;;;;;;;;;;10373691;28;20038;-54
2022/01/09 20:56:12;;;;;;;28.55;14.80;;;;;;;;;;10372695;28;20030;-52
2022/01/09 21:01:13;;;;;;;29.10;14.25;;;;;;;;;;10371233;28;20025;-53
2022/01/09 21:06:13;;;;;;;25.33;13.48;;;;;;;;;;10372651;28;20032;-56
2022/01/09 21:11:14;;;;;;;29.20;13.13;;;;;;;;;;10371733;28;20026;-54
2022/01/09 21:16:15;;;;;;;32.50;14.73;;;;;;;;;;10368924;28;20827;-56
2022/01/09 21:21:16;;;;;;;27.45;14.70;;;;;;;;;;10370957;28;20038;-50
2022/01/09 21:26:16;;;;;;;30.20;14.57;;;;;;;;;;10367534;28;20026;-52
2022/01/09 21:31:17;;;;;;;30.30;13.82;;;;;;;;;;10371217;28;20454;-49
2022/01/09 21:36:17;;;;;;;23.83;13.63;;;;;;;;;;10370158;28;20033;-58
2022/01/09 21:41:17;;;;;;;31.60;15.13;;;;;;;;;;10370596;28;20926;-53
2022/01/09 21:46:18;;;;;;;26.40;14.03;;;;;;;;;;10370735;28;20452;-52
2022/01/09 21:51:18;;;;;;;25.00;14.23;;;;;;;;;;10370666;28;20447;-58
2022/01/09 21:56:18;;;;;;;27.07;17.30;;;;;;;;;;10369073;28;20823;-51
2022/01/09 22:01:19;;;;;;;27.90;14.87;;;;;;;;;;10369942;28;20030;-54
2022/01/09 22:06:20;;;;;;;27.42;14.88;;;;;;;;;;10369740;28;20064;-62
2022/01/09 22:11:20;;;;;;;29.40;15.95;;;;;;;;;;10369679;28;20073;-63
2022/01/09 22:16:20;;;;;;;24.40;15.68;;;;;;;;;;10369420;28;20069;-53
2022/01/09 22:21:21;;;;;;;32.80;15.77;;;;;;;;;;10367120;28;20052;-52
2022/01/09 22:26:22;;;;;;;27.05;16.27;;;;;;;;;;10361730;28;20460;-53
2022/01/09 22:31:24;;;;;;;29.73;16.90;;;;;;;;;;10368800;28;20100;-49
2022/01/09 22:36:25;;;;;;;28.98;17.00;;;;;;;;;;10368923;28;20394;-53
2022/01/09 22:41:25;;;;;;;32.03;16.38;;;;;;;;;;10368750;28;20450;-50
2022/01/09 22:46:26;;;;;;;33.95;16.95;;;;;;;;;;10369225;28;20029;-50
2022/01/09 22:51:26;;;;;;;30.33;15.80;;;;;;;;;;10367736;28;20033;-49
2022/01/09 22:56:27;;;;;;;27.73;16.67;;;;;;;;;;10369241;28;20474;-53
2022/01/09 23:01:27;;;;;;;32.10;17.10;;;;;;;;;;10368096;28;20235;-53
2022/01/09 23:06:28;;;;;;;27.70;16.33;;;;;;;;;;10367217;28;20562;-53
2022/01/09 23:11:28;;;;;;;31.02;16.45;;;;;;;;;;10367174;28;20050;-56
2022/01/09 23:16:31;;;;;;;27.92;16.48;;;;;;;;;;10367044;28;20046;-53
2022/01/09 23:21:31;;;;;;;27.90;16.65;;;;;;;;;;10367653;28;20109;-55
2022/01/09 23:26:32;;;;;;;26.98;16.70;;;;;;;;;;10372688;28;20040;-54
2022/01/09 23:31:33;;;;;;;25.33;16.17;;;;;;;;;;10373380;28;20473;-56
2022/01/09 23:42:12;;;;;;;27.67;15.90;;;;;;;;;;10373305;28;20041;-52
2022/01/09 23:47:12;;;;;;;26.55;16.60;;;;;;;;;;10375226;28;20071;-54
2022/01/09 23:52:13;;;;;;;24.15;15.88;;;;;;;;;;10374469;28;20075;-50
2022/01/09 23:57:14;;;;;;;24.97;16.93;;;;;;;;;;10375171;28;20519;-54
